Time;durP1;ratioP1;P1;durP2;ratioP2;P2;SDS_P1;SDS_P2;PMS_P1;PMS_P2;Temp;Humidity;BMP_temperature;BMP_pressure;BME280_temperature;BME280_humidity;BME280_pressure;Samples;Min_cycle;Max_cycle;Signal;HPM_P1;HPM_P2
2021/12/16 00:01:50;;;;;;;45.92;25.95;;;;;;;6.91;100.00;102614.41;856442;23;5215;-55
2021/12/16 00:02:11;;;;;;;46.30;26.60;;;;;;;6.95;100.00;102612.03;856603;23;902;-58
2021/12/16 00:02:56;;;;;;;45.67;26.77;;;;;;;6.98;100.00;102612.13;855546;23;866;-54
2021/12/16 00:07:37;;;;;;;45.25;26.67;;;;;;;6.94;100.00;102611.97;851143;23;4940;-53
2021/12/16 00:08:09;;;;;;;47.65;27.13;;;;;;;6.93;100.00;102617.97;851747;23;5015;-56
2021/12/16 00:09:06;;;;;;;45.28;25.50;;;;;;;6.95;100.00;102618.91;847073;23;5180;-53
2021/12/16 00:09:24;;;;;;;46.53;26.85;;;;;;;6.94;100.00;102615.44;851163;23;1489;-57
2021/12/16 00:10:44;;;;;;;50.83;27.92;;;;;;;6.91;100.00;102614.41;859473;23;5303;-57
2021/12/16 00:11:25;;;;;;;47.65;25.73;;;;;;;6.90;100.00;102617.84;855858;23;5410;-54
2021/12/16 00:29:05;;;;;;;54.70;28.15;;;;;;;6.85;100.00;102624.56;850716;23;5663;-54
2021/12/16 00:30:40;;;;;;;51.03;28.10;;;;;;;6.86;100.00;102626.34;846406;23;1370;-56
2021/12/16 00:31:19;;;;;;;52.30;27.80;;;;;;;6.85;100.00;102629.75;850630;23;5328;-57
2021/12/16 00:33:16;;;;;;;50.10;27.20;;;;;;;6.84;100.00;102623.69;847722;23;808;-55
2021/12/16 00:33:41;;;;;;;48.90;27.13;;;;;;;6.84;100.00;102618.50;850135;23;5245;-53
2021/12/16 00:34:03;;;;;;;45.42;25.67;;;;;;;6.85;100.00;102627.16;845466;23;4228;-56
2021/12/16 00:34:29;;;;;;;43.63;25.38;;;;;;;6.87;100.00;102625.50;846657;23;808;-53
2021/12/16 00:34:50;;;;;;;45.22;26.15;;;;;;;6.87;100.00;102622.91;851771;23;5109;-55
2021/12/16 00:35:12;;;;;;;48.30;26.58;;;;;;;6.87;100.00;102629.00;851470;23;816;-52
2021/12/16 00:35:32;;;;;;;48.80;26.15;;;;;;;6.87;100.00;102623.81;851692;23;977;-56
2021/12/16 00:35:53;;;;;;;49.90;26.90;;;;;;;6.88;100.00;102619.47;842082;23;1100;-54
2021/12/16 00:36:14;;;;;;;48.97;27.67;;;;;;;6.89;100.00;102621.28;845047;23;788;-55
2021/12/16 00:36:40;;;;;;;47.60;26.77;;;;;;;6.89;100.00;102616.06;843676;23;871;-54
2021/12/16 00:37:01;;;;;;;44.88;26.33;;;;;;;6.89;100.00;102622.16;842337;23;5311;-56
2021/12/16 00:37:22;;;;;;;47.28;27.27;;;;;;;6.89;100.00;102621.28;843880;23;848;-54
2021/12/16 00:37:43;;;;;;;50.42;27.80;;;;;;;6.89;100.00;102616.06;843575;23;907;-55
2021/12/16 00:38:03;;;;;;;51.33;28.17;;;;;;;6.88;100.00;102615.19;847030;23;958;-56
2021/12/16 00:38:24;;;;;;;52.70;28.48;;;;;;;6.88;100.00;102620.41;848137;23;1156;-55
2021/12/16 00:38:44;;;;;;;52.72;28.40;;;;;;;6.88;100.00;102619.47;851814;23;748;-56
2021/12/16 00:39:12;;;;;;;53.37;28.50;;;;;;;6.87;100.00;102618.59;851907;23;843;-56
2021/12/16 00:39:35;;;;;;;54.03;27.35;;;;;;;6.87;100.00;102623.81;854391;23;827;-54
2021/12/16 00:39:56;;;;;;;50.08;26.88;;;;;;;6.88;100.00;102617.78;846730;23;5343;-57
2021/12/16 00:40:18;;;;;;;47.55;26.50;;;;;;;6.90;100.00;102620.44;850298;23;1132;-53
2021/12/16 00:40:41;;;;;;;47.95;26.88;;;;;;;6.89;100.00;102616.06;848171;23;839;-56
2021/12/16 00:41:02;;;;;;;50.75;27.95;;;;;;;6.90;100.00;102628.25;847563;23;5323;-56
2021/12/16 00:41:23;;;;;;;47.42;26.77;;;;;;;6.90;100.00;102618.72;846242;23;1255;-54
2021/12/16 00:41:47;;;;;;;47.58;26.58;;;;;;;6.89;100.00;102616.94;850922;23;843;-57
2021/12/16 00:42:52;;;;;;;52.45;27.95;;;;;;;6.90;100.00;102620.44;854774;23;1225;-55
2021/12/16 00:43:24;;;;;;;52.28;28.60;;;;;;;6.90;100.00;102617.84;844907;23;4852;-55
2021/12/16 00:44:02;;;;;;;53.97;29.30;;;;;;;6.90;100.00;102618.72;842183;23;880;-54
2021/12/16 00:45:19;;;;;;;49.50;28.40;;;;;;;6.90;100.00;102615.25;841919;23;2176;-58
2021/12/16 00:46:15;;;;;;;63.63;32.25;;;;;;;6.92;100.00;102616.19;850729;23;4426;-56
2021/12/16 00:47:33;;;;;;;50.78;27.45;;;;;;;6.91;100.00;102614.41;850390;23;2358;-53
2021/12/16 00:48:01;;;;;;;47.85;27.13;;;;;;;6.86;100.00;102613.34;852126;23;4960;-55
2021/12/16 00:48:24;;;;;;;49.80;27.60;;;;;;;6.85;100.00;102622.84;851122;23;5351;-54
2021/12/16 00:49:20;;;;;;;53.00;29.08;;;;;;;6.84;100.00;102620.19;846036;23;4460;-54
2021/12/16 00:49:49;;;;;;;51.58;28.60;;;;;;;6.85;100.00;102621.97;850091;23;4911;-55
2021/12/16 00:54:14;;;;;;;48.78;26.33;;;;;;;6.83;100.00;102624.50;843748;23;713;-57
2021/12/16 00:54:37;;;;;;;47.30;26.23;;;;;;;6.84;100.00;102620.19;842026;23;2364;-53
2021/12/16 00:55:15;;;;;;;47.63;26.48;;;;;;;6.82;100.00;102621.00;849715;23;4242;-55
2021/12/16 00:56:08;;;;;;;44.90;25.23;;;;;;;6.85;100.00;102615.03;850224;23;2174;-56
2021/12/16 00:56:30;;;;;;;46.70;25.90;;;;;;;6.86;100.00;102621.16;852774;23;1893;-56
2021/12/16 00:56:58;;;;;;;46.33;25.77;;;;;;;6.87;100.00;102620.31;847707;23;1199;-56
2021/12/16 00:57:20;;;;;;;48.05;26.67;;;;;;;6.86;100.00;102619.44;842842;23;1189;-53
2021/12/16 00:57:42;;;;;;;47.90;26.98;;;;;;;6.87;100.00;102622.91;848176;23;837;-56
2021/12/16 00:58:03;;;;;;;47.40;26.30;;;;;;;6.87;100.00;102617.69;842007;23;4966;-60
2021/12/16 00:58:29;;;;;;;48.90;26.27;;;;;;;6.86;100.00;102618.56;844733;23;777;-54
2021/12/16 00:58:54;;;;;;;51.95;27.52;;;;;;;6.86;100.00;102622.03;841678;23;5033;-54
2021/12/16 00:59:17;;;;;;;51.47;28.42;;;;;;;6.87;100.00;102620.31;841103;23;1067;-55
2021/12/16 00:59:43;;;;;;;49.53;28.42;;;;;;;6.85;100.00;102625.44;843568;23;5118;-53
2021/12/16 01:00:06;;;;;;;53.67;29.17;;;;;;;6.85;100.00;102622.84;838378;23;2031;-53
2021/12/16 01:00:30;;;;;;;53.03;28.48;;;;;;;6.85;100.00;102629.75;834344;23;4642;-55
2021/12/16 01:02:14;;;;;;;55.03;28.90;;;;;;;6.84;100.00;102618.50;841342;23;4611;-53
2021/12/16 01:02:53;;;;;;;50.83;26.92;;;;;;;6.86;100.00;102623.75;840897;23;5676;-54
2021/12/16 01:03:31;;;;;;;50.00;27.45;;;;;;;6.85;100.00;102617.63;846136;23;5242;-56
2021/12/16 01:04:56;;;;;;;49.83;27.23;;;;;;;6.86;100.00;102621.16;850253;23;10600;-57
2021/12/16 01:05:57;;;;;;;52.65;28.10;;;;;;;6.86;100.00;102626.34;850287;23;4896;-54
2021/12/16 01:07:32;;;;;;;53.42;28.58;;;;;;;6.85;100.00;102627.16;854244;23;4779;-57
2021/12/16 01:08:19;;;;;;;46.22;25.92;;;;;;;6.86;100.00;102621.16;847854;23;2219;-55
2021/12/16 01:34:40;;;;;;;54.65;28.05;;;;;;;6.82;100.00;102639.19;849319;23;5263;-53
2021/12/16 01:36:08;;;;;;;48.88;26.85;;;;;;;6.84;100.00;102641.88;843752;23;4733;-53
2021/12/16 01:49:11;;;;;;;47.50;26.48;;;;;;;6.89;100.00;102650.75;850304;23;1386;-56
2021/12/16 01:50:24;;;;;;;51.42;26.20;;;;;;;6.87;100.00;102646.31;850617;23;5504;-55
2021/12/16 01:50:52;;;;;;;50.30;27.90;;;;;;;6.87;100.00;102647.22;849896;23;1306;-58
2021/12/16 01:51:21;;;;;;;54.70;28.38;;;;;;;6.87;100.00;102647.22;846443;23;1275;-57
2021/12/16 01:52:06;;;;;;;56.50;28.88;;;;;;;6.88;100.00;102648.09;844552;23;1365;-57
2021/12/16 01:53:34;;;;;;;53.30;27.20;;;;;;;6.87;100.00;102648.91;847245;23;819;-53
2021/12/16 01:54:52;;;;;;;51.80;27.48;;;;;;;6.88;100.00;102650.69;850368;23;1415;-58
2021/12/16 01:55:25;;;;;;;51.17;25.75;;;;;;;6.89;100.00;102648.16;848906;23;6361;-55
2021/12/16 01:56:03;;;;;;;54.08;26.95;;;;;;;6.91;100.00;102653.41;851811;23;5259;-57
2021/12/16 01:56:53;;;;;;;54.53;29.02;;;;;;;6.90;100.00;102655.13;851477;23;5606;-58
2021/12/16 01:57:16;;;;;;;52.00;28.30;;;;;;;6.90;100.00;102654.25;851109;23;4884;-58
2021/12/16 01:57:45;;;;;;;50.25;25.98;;;;;;;6.90;100.00;102651.66;850204;23;1465;-56
2021/12/16 01:58:15;;;;;;;46.85;25.40;;;;;;;6.90;100.00;102655.13;845254;23;4431;-57
2021/12/16 01:58:36;;;;;;;42.42;24.90;;;;;;;6.91;100.00;102656.00;850370;23;1251;-59
2021/12/16 01:59:01;;;;;;;45.85;25.15;;;;;;;6.90;100.00;102649.06;846758;23;1239;-58
2021/12/16 01:59:26;;;;;;;48.30;26.20;;;;;;;6.90;100.00;102649.94;846105;23;1364;-55
2021/12/16 01:59:57;;;;;;;49.05;27.10;;;;;;;6.92;100.00;102652.59;846043;23;988;-53
2021/12/16 02:00:31;;;;;;;52.10;27.98;;;;;;;6.92;100.00;102652.59;846318;23;1408;-55
2021/12/16 02:01:17;;;;;;;52.28;28.83;;;;;;;6.92;100.00;102661.31;849598;23;1360;-57
2021/12/16 02:01:39;;;;;;;51.40;28.73;;;;;;;6.92;100.00;102656.09;847788;23;9497;-56
2021/12/16 02:02:15;;;;;;;52.63;27.85;;;;;;;6.93;100.00;102654.38;851136;23;1560;-57
2021/12/16 02:03:04;;;;;;;50.08;27.55;;;;;;;6.92;100.00;102657.78;855844;23;798;-55
2021/12/16 02:03:39;;;;;;;51.97;28.13;;;;;;;6.92;100.00;102650.00;854949;23;4804;-55
2021/12/16 02:04:13;;;;;;;52.20;27.55;;;;;;;6.92;100.00;102657.78;846301;23;4293;-55
2021/12/16 02:04:41;;;;;;;53.30;28.38;;;;;;;6.91;100.00;102653.41;845935;23;1251;-56
2021/12/16 02:05:51;;;;;;;52.47;27.40;;;;;;;6.90;100.00;102649.94;843703;23;4853;-56
2021/12/16 02:06:38;;;;;;;41.95;24.15;;;;;;;6.91;100.00;102653.41;846275;23;5053;-54
2021/12/16 02:07:22;;;;;;;46.80;26.00;;;;;;;6.91;100.00;102656.00;853625;23;4237;-55
2021/12/16 02:08:33;;;;;;;51.03;27.50;;;;;;;6.92;100.00;102655.19;849902;23;1370;-56
2021/12/16 02:08:55;;;;;;;51.15;27.90;;;;;;;6.92;100.00;102653.50;854844;23;1211;-56
2021/12/16 02:09:27;;;;;;;48.55;27.10;;;;;;;6.92;100.00;102653.50;856066;23;921;-52
2021/12/16 02:09:49;;;;;;;47.47;26.98;;;;;;;6.93;100.00;102651.78;849769;23;4884;-52
2021/12/16 02:10:16;;;;;;;49.17;28.15;;;;;;;6.93;100.00;102652.66;850319;23;4291;-55
2021/12/16 02:10:42;;;;;;;51.92;28.05;;;;;;;6.93;100.00;102650.06;853541;23;4854;-54
2021/12/16 02:11:26;;;;;;;52.00;28.42;;;;;;;6.94;100.00;102650.97;846260;23;4716;-53
2021/12/16 02:11:57;;;;;;;56.60;29.40;;;;;;;6.95;100.00;102652.72;849595;23;4830;-53
2021/12/16 02:13:17;;;;;;;68.35;32.33;;;;;;;6.95;100.00;102650.13;851883;23;5600;-53
2021/12/16 02:13:33;;;;;;;75.10;35.75;;;;;;;6.94;100.00;102646.63;848847;23;5605;-57
2021/12/16 02:27:33;;;;;;;63.05;31.10;;;;;;;6.95;100.00;102653.63;843622;23;5049;-55
2021/12/16 02:29:17;;;;;;;70.07;34.38;;;;;;;6.96;100.00;102646.69;849053;23;1263;-54
2021/12/16 02:29:29;;;;;;;74.20;33.63;;;;;;;6.96;100.00;102651.91;842576;23;1253;-56
2021/12/16 02:30:48;;;;;;;61.83;29.65;;;;;;;6.95;100.00;102650.13;852202;23;935;-57
2021/12/16 02:32:13;;;;;;;56.90;28.45;;;;;;;6.92;100.00;102648.31;843390;23;1341;-53
2021/12/16 02:33:52;;;;;;;48.63;26.25;;;;;;;6.93;100.00;102650.06;858435;23;1355;-55
2021/12/16 02:34:28;;;;;;;52.00;27.23;;;;;;;6.93;100.00;102643.97;857628;23;4239;-55
2021/12/16 02:35:14;;;;;;;49.40;26.70;;;;;;;6.94;100.00;102643.16;854570;23;1314;-52
2021/12/16 02:36:00;;;;;;;53.08;28.45;;;;;;;6.95;100.00;102647.50;853953;23;5187;-56
2021/12/16 02:36:31;;;;;;;53.45;28.50;;;;;;;6.95;100.00;102652.72;849764;23;5042;-55
2021/12/16 02:36:53;;;;;;;53.47;28.88;;;;;;;6.94;100.00;102641.44;853628;23;5384;-54
2021/12/16 02:37:19;;;;;;;53.92;28.95;;;;;;;6.95;100.00;102648.44;853736;23;4604;-56
2021/12/16 02:37:48;;;;;;;57.13;29.40;;;;;;;6.96;100.00;102645.00;854169;23;5444;-55
2021/12/16 02:38:12;;;;;;;57.85;29.25;;;;;;;6.96;100.00;102650.22;850215;23;5575;-56
2021/12/16 02:38:34;;;;;;;57.17;29.70;;;;;;;6.95;100.00;102647.50;850483;23;985;-53
2021/12/16 02:39:05;;;;;;;52.92;28.02;;;;;;;6.95;100.00;102648.44;854491;23;894;-53
2021/12/16 02:39:33;;;;;;;53.22;28.85;;;;;;;6.95;100.00;102643.22;853771;23;5529;-56
2021/12/16 02:39:55;;;;;;;50.25;28.30;;;;;;;6.97;100.00;102645.88;854703;23;4804;-57
2021/12/16 02:40:18;;;;;;;51.28;27.90;;;;;;;6.97;100.00;102645.88;854124;23;839;-54
2021/12/16 02:40:39;;;;;;;53.70;28.55;;;;;;;6.96;100.00;102646.69;853784;23;1325;-56
2021/12/16 02:41:00;;;;;;;52.90;27.98;;;;;;;6.94;100.00;102645.75;845888;23;1259;-54
2021/12/16 02:41:22;;;;;;;51.85;27.73;;;;;;;6.93;100.00;102644.84;850093;23;1215;-57
2021/12/16 02:41:46;;;;;;;53.55;28.10;;;;;;;6.93;100.00;102643.97;849042;23;1467;-54
2021/12/16 02:42:18;;;;;;;53.88;27.27;;;;;;;6.92;100.00;102642.19;839378;23;5020;-53
2021/12/16 02:42:53;;;;;;;52.60;28.02;;;;;;;6.91;100.00;102646.50;843529;23;819;-52
2021/12/16 02:44:19;;;;;;;47.35;26.40;;;;;;;6.93;100.00;102649.19;850168;23;5172;-53
2021/12/16 02:48:34;;;;;;;54.00;28.88;;;;;;;6.97;100.00;102641.56;853463;23;1411;-54
2021/12/16 02:48:54;;;;;;;53.13;28.75;;;;;;;6.97;100.00;102640.69;849866;23;4230;-55
2021/12/16 02:49:18;;;;;;;54.17;28.38;;;;;;;6.98;100.00;102647.66;846102;23;1062;-55
2021/12/16 02:49:39;;;;;;;55.05;28.50;;;;;;;6.98;100.00;102648.53;845113;23;760;-57
2021/12/16 02:49:59;;;;;;;52.25;28.77;;;;;;;6.97;100.00;102651.09;842069;23;1426;-57
2021/12/16 02:50:22;;;;;;;53.93;28.87;;;;;;;6.98;100.00;102652.88;847757;23;1188;-54
2021/12/16 02:50:42;;;;;;;55.40;29.35;;;;;;;6.97;100.00;102643.28;852110;23;1270;-52
2021/12/16 02:51:08;;;;;;;59.28;29.27;;;;;;;6.97;100.00;102651.97;850182;23;884;-54
2021/12/16 02:51:29;;;;;;;58.40;30.10;;;;;;;6.98;100.00;102650.25;849918;23;1196;-56
2021/12/16 02:51:51;;;;;;;59.50;30.53;;;;;;;6.97;100.00;102645.88;851716;23;677;-56
2021/12/16 02:52:12;;;;;;;56.72;29.85;;;;;;;6.97;100.00;102651.09;845182;23;4236;-53
2021/12/16 02:52:32;;;;;;;56.63;29.00;;;;;;;6.97;100.00;102648.47;848452;23;1260;-53
2021/12/16 02:52:53;;;;;;;51.88;28.15;;;;;;;6.97;100.00;102645.88;849433;23;871;-53
2021/12/16 02:53:14;;;;;;;52.17;28.13;;;;;;;6.97;100.00;102654.56;851987;23;836;-54
2021/12/16 02:53:38;;;;;;;51.42;27.33;;;;;;;6.97;100.00;102651.09;845893;23;1208;-54
2021/12/16 02:54:04;;;;;;;54.25;27.63;;;;;;;6.98;100.00;102658.06;842776;23;4823;-55
2021/12/16 02:54:27;;;;;;;53.35;27.73;;;;;;;6.96;100.00;102658.00;840539;23;5408;-56
2021/12/16 02:54:47;;;;;;;57.05;28.38;;;;;;;6.96;100.00;102650.22;846116;23;1359;-55
2021/12/16 02:55:11;;;;;;;56.13;28.48;;;;;;;6.97;100.00;102658.88;841992;23;4334;-56
2021/12/16 02:55:31;;;;;;;51.30;25.92;;;;;;;6.96;100.00;102657.09;840453;23;4995;-56
2021/12/16 02:55:53;;;;;;;45.95;25.75;;;;;;;6.96;100.00;102651.91;848990;23;1135;-56
2021/12/16 02:56:15;;;;;;;45.60;25.33;;;;;;;6.96;100.00;102659.69;851648;23;1463;-55
2021/12/16 02:56:37;;;;;;;44.50;25.17;;;;;;;6.96;100.00;102651.91;848291;23;1925;-55
2021/12/16 02:56:57;;;;;;;45.97;25.67;;;;;;;6.96;100.00;102651.91;841789;23;1361;-56
2021/12/16 02:57:18;;;;;;;47.28;26.45;;;;;;;6.96;100.00;102654.50;841713;23;1201;-54
2021/12/16 02:57:47;;;;;;;49.70;27.60;;;;;;;6.96;100.00;102654.50;844113;23;809;-55
2021/12/16 02:58:08;;;;;;;57.33;30.05;;;;;;;6.96;100.00;102654.50;839156;23;4305;-57
2021/12/16 02:58:28;;;;;;;61.75;31.23;;;;;;;6.97;100.00;102651.09;841735;23;753;-55
2021/12/16 02:58:52;;;;;;;63.87;31.07;;;;;;;6.96;100.00;102647.59;840374;23;941;-56
2021/12/16 02:59:15;;;;;;;55.25;29.25;;;;;;;6.97;100.00;102651.09;844845;23;4645;-53
2021/12/16 02:59:36;;;;;;;50.72;27.48;;;;;;;6.97;100.00;102662.34;845841;23;1282;-55
2021/12/16 02:59:57;;;;;;;49.05;27.08;;;;;;;6.97;100.00;102654.56;841776;23;1281;-55
2021/12/16 03:00:18;;;;;;;55.17;29.13;;;;;;;6.97;100.00;102657.16;843959;23;804;-53
2021/12/16 03:00:44;;;;;;;61.13;30.45;;;;;;;6.98;100.00;102660.66;846308;23;1293;-57
2021/12/16 03:01:11;;;;;;;60.95;31.02;;;;;;;6.98;100.00;102658.06;843828;23;4292;-56
2021/12/16 03:01:41;;;;;;;64.05;31.13;;;;;;;6.98;100.00;102658.06;838869;23;1680;-56
2021/12/16 03:02:10;;;;;;;54.08;28.33;;;;;;;6.97;100.00;102659.75;846221;23;1223;-55
2021/12/16 03:02:33;;;;;;;57.25;29.25;;;;;;;6.95;100.00;102657.91;844388;23;1544;-52
2021/12/16 03:02:54;;;;;;;58.85;29.33;;;;;;;6.96;100.00;102662.31;843415;23;1164;-56
2021/12/16 03:03:16;;;;;;;58.97;30.00;;;;;;;6.96;100.00;102660.59;841947;23;784;-52
2021/12/16 03:03:39;;;;;;;60.63;29.85;;;;;;;6.96;100.00;102659.69;841472;23;860;-53
2021/12/16 03:04:06;;;;;;;62.97;29.63;;;;;;;6.96;100.00;102662.31;834104;23;4515;-56
2021/12/16 03:04:29;;;;;;;61.22;29.65;;;;;;;6.97;100.00;102658.88;837634;23;832;-54
2021/12/16 03:04:51;;;;;;;59.83;30.30;;;;;;;6.97;100.00;102658.88;845299;23;4541;-53
2021/12/16 03:05:12;;;;;;;53.97;28.40;;;;;;;6.96;100.00;102654.50;851664;23;911;-57
2021/12/16 03:05:33;;;;;;;54.70;28.60;;;;;;;6.97;100.00;102657.16;848918;23;1274;-55
2021/12/16 03:05:54;;;;;;;56.58;28.92;;;;;;;6.97;100.00;102661.47;845600;23;1085;-57
2021/12/16 03:06:15;;;;;;;63.05;30.65;;;;;;;6.98;100.00;102660.66;845410;23;1302;-56
2021/12/16 03:06:37;;;;;;;59.90;30.27;;;;;;;6.97;100.00;102659.75;846065;23;1399;-55
2021/12/16 03:06:59;;;;;;;60.55;31.17;;;;;;;6.98;100.00;102658.06;847018;23;4647;-52
2021/12/16 03:07:22;;;;;;;62.08;31.20;;;;;;;6.98;100.00;102664.16;849705;23;5459;-53
2021/12/16 03:07:42;;;;;;;57.88;28.80;;;;;;;6.99;100.00;102659.81;840593;23;931;-52
2021/12/16 03:08:05;;;;;;;53.95;27.52;;;;;;;6.99;100.00;102659.81;840657;23;864;-53
2021/12/16 03:08:25;;;;;;;55.65;28.65;;;;;;;7.01;100.00;102662.50;846518;23;882;-56
2021/12/16 03:08:47;;;;;;;52.08;28.42;;;;;;;6.99;100.00;102662.41;850631;23;1397;-56
2021/12/16 03:09:09;;;;;;;55.22;29.15;;;;;;;6.98;100.00;102660.66;846278;23;1243;-53
2021/12/16 03:10:05;;;;;;;54.70;28.05;;;;;;;7.00;100.00;102659.00;848766;23;5384;-55
2021/12/16 03:11:17;;;;;;;58.10;29.02;;;;;;;6.99;100.00;102660.72;847967;23;807;-56
2021/12/16 03:13:09;;;;;;;60.42;29.75;;;;;;;7.00;100.00;102659.00;847812;23;5200;-53
2021/12/16 03:13:36;;;;;;;57.75;29.67;;;;;;;7.00;100.00;102659.00;851691;23;891;-54
2021/12/16 03:14:30;;;;;;;61.20;30.52;;;;;;;7.01;100.00;102663.41;851691;23;5098;-54
2021/12/16 03:14:57;;;;;;;58.75;30.17;;;;;;;7.01;100.00;102660.78;850202;23;5246;-56
2021/12/16 03:15:37;;;;;;;61.72;30.02;;;;;;;7.01;100.00;102660.78;850735;23;1322;-55
2021/12/16 03:16:20;;;;;;;59.55;29.63;;;;;;;7.00;100.00;102659.00;850634;23;5371;-55
2021/12/16 03:17:03;;;;;;;55.03;28.10;;;;;;;7.01;100.00;102658.19;846270;23;5500;-58
2021/12/16 03:17:42;;;;;;;57.50;29.02;;;;;;;7.01;100.00;102658.19;850208;23;5334;-57
2021/12/16 03:18:22;;;;;;;52.13;27.88;;;;;;;7.01;100.00;102659.91;846028;23;5275;-56
2021/12/16 03:19:08;;;;;;;52.75;27.92;;;;;;;7.03;100.00;102658.25;846379;23;5716;-55
2021/12/16 03:19:46;;;;;;;51.10;27.00;;;;;;;7.03;100.00;102660.84;845628;23;9314;-54
2021/12/16 03:20:21;;;;;;;51.92;27.98;;;;;;;7.01;100.00;102660.78;846135;23;5323;-56
2021/12/16 03:20:47;;;;;;;53.90;28.52;;;;;;;7.02;100.00;102657.38;849441;23;5323;-56
2021/12/16 03:21:21;;;;;;;48.80;27.35;;;;;;;7.03;100.00;102653.03;852212;23;5203;-57
2021/12/16 03:21:46;;;;;;;44.70;26.38;;;;;;;7.01;100.00;102655.59;854325;23;5302;-56
2021/12/16 03:22:09;;;;;;;46.03;25.63;;;;;;;7.02;100.00;102646.97;849328;23;4242;-57
2021/12/16 03:24:08;;;;;;;46.95;26.30;;;;;;;7.01;100.00;102654.72;850004;23;5107;-55
2021/12/16 03:25:16;;;;;;;46.03;25.67;;;;;;;7.02;100.00;102653.88;851346;23;903;-53
2021/12/16 03:25:53;;;;;;;49.75;27.20;;;;;;;7.02;100.00;102657.38;853026;23;9374;-57
2021/12/16 03:27:56;;;;;;;50.13;27.42;;;;;;;7.03;100.00;102659.13;849707;23;5196;-54
2021/12/16 03:28:38;;;;;;;48.30;27.20;;;;;;;7.03;100.00;102656.53;848343;23;4918;-54
2021/12/16 03:33:49;;;;;;;47.83;26.25;;;;;;;7.03;100.00;102656.53;851854;23;4746;-54
2021/12/16 03:36:27;;;;;;;47.45;26.33;;;;;;;7.01;100.00;102663.41;846330;23;940;-56
2021/12/16 03:36:51;;;;;;;53.13;27.48;;;;;;;7.01;100.00;102663.41;844199;23;5017;-55
2021/12/16 03:37:20;;;;;;;53.13;27.92;;;;;;;7.01;100.00;102663.41;845192;23;5604;-54
2021/12/16 03:37:41;;;;;;;47.33;26.38;;;;;;;7.03;100.00;102660.84;846240;23;5626;-55
2021/12/16 03:38:08;;;;;;;48.28;26.75;;;;;;;7.01;100.00;102668.59;844849;23;947;-56
2021/12/16 03:38:28;;;;;;;51.10;27.67;;;;;;;7.02;100.00;102665.19;847193;23;5285;-56
2021/12/16 03:38:51;;;;;;;47.83;26.30;;;;;;;7.01;100.00;102666.00;846217;23;1117;-57
2021/12/16 03:39:12;;;;;;;47.15;24.95;;;;;;;6.99;100.00;102668.53;841878;23;1319;-57
2021/12/16 03:39:32;;;;;;;48.97;26.08;;;;;;;6.99;100.00;102658.13;841966;23;994;-56
2021/12/16 03:40:11;;;;;;;53.43;27.33;;;;;;;6.99;100.00;102665.03;844340;23;854;-54
2021/12/16 03:40:32;;;;;;;50.95;27.15;;;;;;;6.99;100.00;102662.41;845903;23;9524;-54
2021/12/16 03:40:53;;;;;;;52.65;27.20;;;;;;;6.99;100.00;102660.72;846421;23;819;-54
2021/12/16 03:41:14;;;;;;;54.42;27.60;;;;;;;6.99;100.00;102668.53;841507;23;1538;-52
2021/12/16 03:41:37;;;;;;;50.50;26.90;;;;;;;6.98;100.00;102666.75;838980;23;1188;-56
2021/12/16 03:41:59;;;;;;;51.65;27.35;;;;;;;6.98;100.00;102664.16;843653;23;1145;-55
2021/12/16 03:42:44;;;;;;;53.58;27.63;;;;;;;6.98;100.00;102669.34;844875;23;835;-57
2021/12/16 03:43:12;;;;;;;56.40;27.38;;;;;;;6.98;100.00;102665.88;853350;23;5544;-54
2021/12/16 03:43:36;;;;;;;52.13;27.13;;;;;;;6.97;100.00;102664.97;853926;23;5048;-56
2021/12/16 03:44:00;;;;;;;55.90;26.30;;;;;;;6.98;100.00;102663.28;850074;23;1935;-57
2021/12/16 03:44:32;;;;;;;50.75;25.63;;;;;;;6.97;100.00;102662.34;841965;23;1224;-54
2021/12/16 03:44:58;;;;;;;47.67;24.67;;;;;;;6.98;100.00;102663.28;836865;23;1248;-55
2021/12/16 03:46:25;;;;;;;49.78;25.02;;;;;;;6.98;100.00;102658.94;831282;23;4276;-56
2021/12/16 03:46:49;;;;;;;45.40;24.48;;;;;;;6.97;100.00;102662.34;836566;23;1329;-57
2021/12/16 03:47:10;;;;;;;42.72;23.33;;;;;;;6.97;100.00;102656.28;842881;23;1365;-55
2021/12/16 03:47:42;;;;;;;44.92;23.55;;;;;;;6.98;100.00;102665.88;845760;23;1394;-55
2021/12/16 03:48:09;;;;;;;48.33;25.73;;;;;;;6.98;100.00;102666.75;840448;23;1303;-53
2021/12/16 03:48:58;;;;;;;42.63;24.38;;;;;;;6.97;100.00;102662.34;842674;23;2305;-56
2021/12/16 03:49:24;;;;;;;47.78;25.15;;;;;;;6.97;100.00;102664.97;846899;23;4330;-57
2021/12/16 03:49:46;;;;;;;47.33;25.15;;;;;;;6.96;100.00;102665.81;850848;23;1368;-57
2021/12/16 03:50:20;;;;;;;47.10;25.05;;;;;;;6.95;100.00;102655.31;854936;23;1515;-55
2021/12/16 03:50:41;;;;;;;48.53;25.95;;;;;;;6.96;100.00;102659.69;846069;23;1350;-56
2021/12/16 03:51:08;;;;;;;46.38;25.58;;;;;;;6.97;100.00;102661.47;842491;23;1447;-56
2021/12/16 03:51:39;;;;;;;47.60;25.40;;;;;;;6.96;100.00;102660.59;842129;23;1283;-55
2021/12/16 03:52:06;;;;;;;47.53;26.02;;;;;;;6.97;100.00;102656.28;838275;23;4840;-57
2021/12/16 03:52:29;;;;;;;47.70;25.58;;;;;;;6.97;100.00;102662.34;842868;23;4918;-54
2021/12/16 03:52:50;;;;;;;43.47;23.45;;;;;;;6.96;100.00;102658.00;847267;23;1293;-55
2021/12/16 03:53:16;;;;;;;46.30;24.13;;;;;;;6.96;100.00;102665.81;854485;23;1107;-55
2021/12/16 03:53:37;;;;;;;44.20;23.50;;;;;;;6.96;100.00;102664.91;850357;23;1420;-56
2021/12/16 03:54:05;;;;;;;41.97;23.10;;;;;;;6.96;100.00;102659.69;846022;23;1288;-55
2021/12/16 03:54:34;;;;;;;44.67;24.95;;;;;;;6.96;100.00;102662.31;841638;23;1244;-53
2021/12/16 03:54:57;;;;;;;49.40;25.17;;;;;;;6.95;100.00;102661.44;846028;23;1191;-58
2021/12/16 03:55:19;;;;;;;45.08;24.02;;;;;;;6.95;100.00;102663.13;848758;23;4206;-55
2021/12/16 03:55:40;;;;;;;46.20;24.65;;;;;;;6.96;100.00;102667.50;846481;23;1227;-55
2021/12/16 03:56:03;;;;;;;43.97;24.13;;;;;;;6.95;100.00;102664.03;846245;23;1524;-57
2021/12/16 03:56:29;;;;;;;44.15;24.48;;;;;;;6.97;100.00;102661.47;849580;23;1954;-53
2021/12/16 03:57:20;;;;;;;41.65;22.77;;;;;;;6.97;100.00;102661.47;847558;23;1692;-56
2021/12/16 03:57:40;;;;;;;41.47;22.88;;;;;;;6.97;100.00;102671.88;854545;23;768;-53
2021/12/16 03:58:04;;;;;;;39.20;22.27;;;;;;;6.97;100.00;102666.69;849739;23;1007;-54
2021/12/16 03:58:24;;;;;;;41.47;22.70;;;;;;;6.97;100.00;102671.88;842758;23;4206;-57
2021/12/16 03:58:48;;;;;;;47.15;25.15;;;;;;;6.98;100.00;102663.28;842256;23;1330;-53
2021/12/16 03:59:13;;;;;;;47.42;26.00;;;;;;;6.96;100.00;102664.91;842162;23;1291;-54
2021/12/16 03:59:52;;;;;;;46.45;25.15;;;;;;;6.96;100.00;102665.81;848084;23;687;-54
2021/12/16 04:00:42;;;;;;;48.97;25.45;;;;;;;6.95;100.00;102666.63;850983;23;907;-55
2021/12/16 04:01:07;;;;;;;44.55;24.67;;;;;;;6.97;100.00;102669.28;852027;23;914;-57
2021/12/16 04:01:29;;;;;;;44.60;25.25;;;;;;;6.95;100.00;102669.22;852330;23;4966;-55
2021/12/16 04:01:53;;;;;;;48.67;25.38;;;;;;;6.95;100.00;102669.22;846100;23;1615;-58
2021/12/16 04:02:33;;;;;;;51.65;26.13;;;;;;;6.97;100.00;102677.09;846001;23;1337;-57
2021/12/16 04:02:56;;;;;;;51.15;25.90;;;;;;;6.95;100.00;102669.22;842490;23;5194;-54
2021/12/16 04:03:22;;;;;;;50.95;25.77;;;;;;;6.96;100.00;102671.00;838353;23;4794;-55
2021/12/16 04:03:43;;;;;;;50.70;25.42;;;;;;;6.96;100.00;102672.69;848250;23;1718;-56
2021/12/16 04:04:05;;;;;;;48.00;25.15;;;;;;;6.96;100.00;102672.69;846234;23;1122;-56
2021/12/16 04:04:26;;;;;;;44.97;24.48;;;;;;;6.96;100.00;102680.50;841670;23;4782;-55
2021/12/16 04:04:51;;;;;;;40.92;22.88;;;;;;;6.95;100.00;102669.22;846328;23;1481;-55
2021/12/16 04:05:13;;;;;;;39.88;22.05;;;;;;;6.95;100.00;102670.91;843887;23;1219;-57
2021/12/16 04:05:37;;;;;;;39.55;22.23;;;;;;;6.96;100.00;102664.91;844004;23;1390;-54
2021/12/16 04:06:00;;;;;;;43.60;23.52;;;;;;;6.96;100.00;102667.50;849209;23;1604;-53